Strona główna
METAR-TAF:

METAR-TAF

Lotnisko :

Platforma wiertnicza

A12-cpp, Holandia

Szerokość geograficzna: 55-23-57N, Długość geograficzna: 3-48-37E, wysokość: 33 m

Aktualna obserwacja pogody

Raport powstał 11 minut temu, godzina 01:55 UTC
Wiatr 47 kt od zachodnio-południowy zachód w porywach dochodzący do 59 kt
Temperatura 7°C
Wilgotność 76%
Ciśnienie 989 hPa
Widzialność 10 km lub więcej

METAR: EHAK 170155Z AUTO 24047G59KT 9999 FEW026/// 07/03 Q0989

czas: 03:06 (02:06 UTC)


TAF: brakujący

Obserwacja i prognoza pogody dla ponad 4000 lotnisk (raport METAR i TAF).

Dostępne stacje oznaczono żółtymi i czerwonymi punktami na mapie.

Najedź kursorem aby zobaczyć nazwę stacji.

Kliknij aby zobaczyć obserwacje i prognozy pogody.

Aby zmienić mapę: kliknij na zielony przycisk z czarnym krzyżykiem, aby powiększyć; na zielony przycisk z myślnikiem, aby pomniejszyć; na zielone strzałki, aby przejść do map sąsiednich.


METAR-TAF: